Aérodrome :
LOGIN :

S'inscrire | Disclaimer

   EN    FR    IT 

 










Légende :    VFR   VFR Marginal   IFR   IFR Intensif   IFR Très Intensif
Visi : 
Plafond : 
>= 8 km
>= 3000ft
5 à 8 km
1000 à 3000 ft
1500m à 5 km
500 à 1000 ft
800 à 1500m
200 à 500 ft
< 800m
< 200 ft
Symboles :   Orages  Brouillard  Fortes neiges  Fortes précipitations  Vent > 20 kt
SIGMETs :   Divers  Orages  Givrage  Turbulence  Onde Orograph.  Cendres Volcan.






- Altitude de l'aérodrome : 1475 ft


LSZC - Buochs Stans

DERNIER METAR :
  • 110750Z 23003KT CAVOK M02/M04 Q1016

METARs EXPIRÉS :
  • 110720Z AUTO 26004KT 9999 FEW110 M01/M04 Q1016
  • 110650Z 27003KT CAVOK M02/M04 Q1017
  • 110620Z AUTO 25002KT 9999 FEW140 M01/M04 Q1017
  • 110550Z AUTO 23003KT CAVOK M03/M04 Q1017
  • 110520Z AUTO 20003KT CAVOK M02/M04 Q1017

TAF TAF LSZC
Valide du 11 à 06h jusqu'au 11 à 15h UTC


110525Z 1106/1115 VRB03KT CAVOK
BECMG 1108/1111 9999 BKN140
PROB40 1114/1115 4000 -SN



MET'MAP, la Météo Aéronautique d'un coup d'oeil ! - Copyright ORBIFLY Décembre 2007 - Disclaimer

ORBIFLY MET'MAP TEAM :

Programmation & Développement : Alexandra Zaïnal
Sur une idée originale de : Baudouin d'Aumeries
Assistance à la programmation : Marc-Olivier Méhu
Soutien technique & logistique : Manuel Goepfert

Contact : metmap@orbifly.com




SOURCES & CREDITS :

   NOAA